Time;durP1;ratioP1;P1;durP2;ratioP2;P2;SDS_P1;SDS_P2;PMS_P1;PMS_P2;Temp;Humidity;BMP_temperature;BMP_pressure;BME280_temperature;BME280_humidity;BME280_pressure;Samples;Min_cycle;Max_cycle;Signal;HPM_P1;HPM_P2
2022/04/04 00:01:24;;;;;;;;;;;;;;;;;;5037164;28;19909;-48
2022/04/04 00:03:49;;;;;;;;;;;;;;;;;;5037216;28;20339;-48
2022/04/04 00:06:14;;;;;;;;;;;;;;;;;;5037146;28;19909;-48
2022/04/04 00:08:40;;;;;;;;;;;;;;;;;;5037163;28;19909;-48
2022/04/04 00:11:06;;;;;;;;;;;;;;;;;;5037000;28;20245;-48
2022/04/04 00:13:31;;;;;;;;;;;;;;;;;;5041160;28;19909;-48
2022/04/04 00:15:56;;;;;;;;;;;;;;;;;;5056896;28;20276;-48
2022/04/04 00:18:22;;;;;;;;;;;;;;;;;;5056732;28;19909;-48
2022/04/04 00:20:47;;;;;;;;;;;;;;;;;;5056641;28;20348;-48
2022/04/04 00:23:13;;;;;;;;;;;;;;;;;;5056795;28;20314;-48
2022/04/04 00:25:38;;;;;;;;;;;;;;;;;;5056726;28;20351;-48
2022/04/04 00:28:03;;;;;;;;;;;;;;;;;;5056584;28;19916;-48
2022/04/04 00:30:29;;;;;;;;;;;;;;;;;;5056165;28;19921;-48
2022/04/04 00:32:54;;;;;;;;;;;;;;;;;;5056526;28;20005;-48
2022/04/04 00:35:19;;;;;;;;;;;;;;;;;;5056633;28;19916;-48
2022/04/04 00:37:44;;;;;;;;;;;;;;;;;;5056543;28;19908;-48
2022/04/04 00:40:09;;;;;;;;;;;;;;;;;;5056324;28;19909;-49
2022/04/04 00:42:34;;;;;;;;;;;;;;;;;;5056241;28;19916;-48
2022/04/04 00:44:59;;;;;;;;;;;;;;;;;;5056168;28;19913;-50
2022/04/04 00:47:24;;;;;;;;;;;;;;;;;;5056350;28;19916;-47
2022/04/04 00:49:49;;;;;;;;;;;;;;;;;;5055895;28;19921;-47
2022/04/04 00:52:14;;;;;;;;;;;;;;;;;;5056115;28;19909;-47
2022/04/04 00:54:40;;;;;;;;;;;;;;;;;;5055895;28;20335;-48
2022/04/04 00:57:05;;;;;;;;;;;;;;;;;;5055998;28;19909;-48
2022/04/04 00:59:30;;;;;;;;;;;;;;;;;;5055797;28;19929;-49
2022/04/04 01:01:55;;;;;;;;;;;;;;;;;;5055345;28;20283;-49
2022/04/04 01:04:20;;;;;;;;;;;;;;;;;;5055773;28;19909;-48
2022/04/04 01:06:45;;;;;;;;;;;;;;;;;;5055740;28;19909;-50
2022/04/04 01:09:14;;;;;;;;;;;;;;;;;;5055711;28;19909;-48
2022/04/04 01:11:39;;;;;;;;;;;;;;;;;;5055456;28;19961;-49
2022/04/04 01:14:04;;;;;;;;;;;;;;;;;;5055661;28;20003;-48
2022/04/04 01:16:29;;;;;;;;;;;;;;;;;;5055684;28;19958;-47
2022/04/04 01:18:54;;;;;;;;;;;;;;;;;;5055617;28;19971;-48
2022/04/04 01:21:20;;;;;;;;;;;;;;;;;;5055329;28;19916;-48
2022/04/04 01:23:45;;;;;;;;;;;;;;;;;;5055509;28;19987;-47
2022/04/04 01:26:10;;;;;;;;;;;;;;;;;;5055337;28;19936;-46
2022/04/04 01:28:35;;;;;;;;;;;;;;;;;;5055313;28;19935;-47
2022/04/04 01:31:00;;;;;;;;;;;;;;;;;;5055185;28;19913;-47
2022/04/04 01:33:25;;;;;;;;;;;;;;;;;;5055604;28;19913;-47
2022/04/04 01:35:51;;;;;;;;;;;;;;;;;;5055312;28;19920;-47
2022/04/04 01:38:16;;;;;;;;;;;;;;;;;;5055119;28;19909;-47
2022/04/04 01:40:41;;;;;;;;;;;;;;;;;;5054659;28;19916;-47
2022/04/04 01:43:07;;;;;;;;;;;;;;;;;;5055272;28;19908;-47
2022/04/04 01:48:16;;;;;;;;;;;;;;;;;;5055261;28;20311;-48
2022/04/04 01:50:41;;;;;;;;;;;;;;;;;;5054887;28;19913;-48
2022/04/04 01:55:50;;;;;;;;;;;;;;;;;;5054928;28;19920;-48
2022/04/04 01:58:15;;;;;;;;;;;;;;;;;;5054531;28;19921;-49
2022/04/04 02:00:40;;;;;;;;;;;;;;;;;;5054729;28;19909;-49
2022/04/04 02:03:05;;;;;;;;;;;;;;;;;;5054932;28;19959;-49
2022/04/04 02:05:30;;;;;;;;;;;;;;;;;;5054963;28;19909;-48
2022/04/04 02:07:56;;;;;;;;;;;;;;;;;;5054909;28;19916;-49
2022/04/04 02:10:21;;;;;;;;;;;;;;;;;;5054787;28;20319;-48
2022/04/04 02:12:46;;;;;;;;;;;;;;;;;;5055006;28;19909;-48
2022/04/04 02:15:12;;;;;;;;;;;;;;;;;;5055058;28;20275;-46
2022/04/04 02:17:37;;;;;;;;;;;;;;;;;;5054861;28;20371;-47
2022/04/04 02:20:02;;;;;;;;;;;;;;;;;;5054754;28;19999;-48
2022/04/04 02:22:27;;;;;;;;;;;;;;;;;;5054744;28;20007;-48
2022/04/04 02:24:52;;;;;;;;;;;;;;;;;;5054328;28;20403;-47
2022/04/04 02:27:18;;;;;;;;;;;;;;;;;;5054321;28;20047;-47
2022/04/04 02:29:43;;;;;;;;;;;;;;;;;;5054153;28;19954;-47
2022/04/04 02:32:08;;;;;;;;;;;;;;;;;;5054279;28;19909;-47
2022/04/04 02:34:33;;;;;;;;;;;;;;;;;;5054150;28;20382;-48
2022/04/04 02:36:58;;;;;;;;;;;;;;;;;;5053923;28;20007;-48
2022/04/04 02:39:23;;;;;;;;;;;;;;;;;;5054234;28;19963;-47
2022/04/04 02:41:49;;;;;;;;;;;;;;;;;;5054050;28;19916;-49
2022/04/04 02:44:14;;;;;;;;;;;;;;;;;;5054073;28;19955;-48
2022/04/04 02:46:39;;;;;;;;;;;;;;;;;;5054089;28;19971;-49
2022/04/04 02:49:04;;;;;;;;;;;;;;;;;;5054032;28;19909;-48
2022/04/04 02:51:29;;;;;;;;;;;;;;;;;;5053954;28;19916;-48
2022/04/04 02:53:54;;;;;;;;;;;;;;;;;;5058149;28;19912;-48
2022/04/04 02:56:29;;;;;;;;;;;;;;;;;;5058203;28;19934;-50
2022/04/04 02:58:54;;;;;;;;;;;;;;;;;;5057990;28;20367;-48
2022/04/04 03:01:20;;;;;;;;;;;;;;;;;;5058052;28;19951;-49
2022/04/04 03:03:46;;;;;;;;;;;;;;;;;;5058250;28;19909;-48
2022/04/04 03:06:11;;;;;;;;;;;;;;;;;;5058164;28;19915;-47
2022/04/04 03:08:36;;;;;;;;;;;;;;;;;;5058309;28;19909;-48
2022/04/04 03:11:01;;;;;;;;;;;;;;;;;;5057962;28;19919;-50
2022/04/04 03:13:26;;;;;;;;;;;;;;;;;;5057986;28;19927;-51
2022/04/04 03:15:52;;;;;;;;;;;;;;;;;;5057858;28;19992;-49
2022/04/04 03:18:17;;;;;;;;;;;;;;;;;;5057822;28;19909;-48
2022/04/04 03:20:42;;;;;;;;;;;;;;;;;;5057906;28;19963;-48
2022/04/04 03:23:07;;;;;;;;;;;;;;;;;;5058127;28;19963;-48
2022/04/04 03:25:32;;;;;;;;;;;;;;;;;;5057758;28;19909;-47
2022/04/04 03:27:57;;;;;;;;;;;;;;;;;;5057908;28;19996;-47
2022/04/04 03:30:23;;;;;;;;;;;;;;;;;;5057902;28;20370;-47
2022/04/04 03:32:49;;;;;;;;;;;;;;;;;;5057934;28;19916;-48
2022/04/04 03:35:14;;;;;;;;;;;;;;;;;;5057563;28;19909;-49
2022/04/04 03:37:40;;;;;;;;;;;;;;;;;;5056318;28;19931;-48
2022/04/04 03:40:05;;;;;;;;;;;;;;;;;;5057510;28;19916;-47
2022/04/04 03:42:30;;;;;;;;;;;;;;;;;;5057542;28;19909;-48
2022/04/04 03:44:55;;;;;;;;;;;;;;;;;;5057532;28;19932;-47
2022/04/04 03:47:21;;;;;;;;;;;;;;;;;;5057565;28;19952;-48
2022/04/04 03:49:46;;;;;;;;;;;;;;;;;;5057674;28;19912;-48
2022/04/04 03:52:11;;;;;;;;;;;;;;;;;;5057376;28;20379;-48
2022/04/04 03:54:37;;;;;;;;;;;;;;;;;;5057348;28;19916;-51
2022/04/04 03:57:02;;;;;;;;;;;;;;;;;;5057509;28;19909;-47
2022/04/04 03:59:27;;;;;;;;;;;;;;;;;;5057239;28;19920;-47
2022/04/04 04:01:52;;;;;;;;;;;;;;;;;;5057176;28;19909;-47
2022/04/04 04:04:17;;;;;;;;;;;;;;;;;;5056334;28;19909;-48
2022/04/04 04:06:43;;;;;;;;;;;;;;;;;;5056379;28;20284;-48
2022/04/04 04:09:08;;;;;;;;;;;;;;;;;;5057094;28;19909;-48
2022/04/04 04:11:34;;;;;;;;;;;;;;;;;;5056790;28;19913;-47
2022/04/04 04:14:00;;;;;;;;;;;;;;;;;;5056905;28;19908;-47
2022/04/04 04:16:26;;;;;;;;;;;;;;;;;;5057148;28;19909;-48
2022/04/04 04:18:51;;;;;;;;;;;;;;;;;;5057056;28;19913;-48
2022/04/04 04:21:16;;;;;;;;;;;;;;;;;;5056883;28;20435;-48
2022/04/04 04:23:41;;;;;;;;;;;;;;;;;;5056952;28;19952;-48
2022/04/04 04:26:07;;;;;;;;;;;;;;;;;;5056755;28;19909;-47
2022/04/04 04:28:32;;;;;;;;;;;;;;;;;;5056686;28;19909;-48
2022/04/04 04:30:58;;;;;;;;;;;;;;;;;;5056515;28;19913;-48
2022/04/04 04:33:24;;;;;;;;;;;;;;;;;;5056715;28;19909;-48
2022/04/04 04:35:50;;;;;;;;;;;;;;;;;;5056587;28;20375;-48
2022/04/04 04:38:15;;;;;;;;;;;;;;;;;;5056363;28;19905;-47
2022/04/04 04:40:40;;;;;;;;;;;;;;;;;;5056504;28;19954;-49
2022/04/04 04:43:05;;;;;;;;;;;;;;;;;;5056373;28;20050;-48
2022/04/04 04:45:30;;;;;;;;;;;;;;;;;;5056218;28;20359;-48
2022/04/04 04:47:56;;;;;;;;;;;;;;;;;;5056201;28;19909;-50
2022/04/04 04:50:21;;;;;;;;;;;;;;;;;;5056219;28;19912;-48
2022/04/04 04:52:46;;;;;;;;;;;;;;;;;;5056224;28;19909;-48
2022/04/04 04:55:11;;;;;;;;;;;;;;;;;;5056087;28;19931;-47
2022/04/04 04:57:36;;;;;;;;;;;;;;;;;;5055890;28;19971;-48
2022/04/04 05:00:05;;;;;;;;;;;;;;;;;;5056099;28;19909;-48
2022/04/04 05:02:30;;;;;;;;;;;;;;;;;;5056099;28;20012;-47
2022/04/04 05:04:56;;;;;;;;;;;;;;;;;;5055961;28;20371;-49
2022/04/04 05:07:21;;;;;;;;;;;;;;;;;;5056107;28;19909;-50
2022/04/04 05:09:46;;;;;;;;;;;;;;;;;;5055944;28;19912;-47
2022/04/04 05:12:11;;;;;;;;;;;;;;;;;;5055906;28;20364;-48
2022/04/04 05:14:37;;;;;;;;;;;;;;;;;;5055660;28;19940;-50
2022/04/04 05:17:02;;;;;;;;;;;;;;;;;;5054805;28;19909;-47
2022/04/04 05:19:27;;;;;;;;;;;;;;;;;;5055614;28;20370;-48
2022/04/04 05:21:52;;;;;;;;;;;;;;;;;;5055558;28;19990;-47
2022/04/04 05:24:17;;;;;;;;;;;;;;;;;;5050768;28;19952;-48
2022/04/04 05:26:43;;;;;;;;;;;;;;;;;;5035904;28;20004;-48
2022/04/04 05:29:08;;;;;;;;;;;;;;;;;;5041459;28;19913;-48
2022/04/04 05:31:34;;;;;;;;;;;;;;;;;;5040483;28;19971;-53
2022/04/04 05:33:59;;;;;;;;;;;;;;;;;;5040070;28;19920;-54
2022/04/04 05:36:24;;;;;;;;;;;;;;;;;;5039380;28;19967;-53
2022/04/04 05:38:50;;;;;;;;;;;;;;;;;;5037144;28;19956;-53
2022/04/04 05:41:15;;;;;;;;;;;;;;;;;;5042536;28;19959;-53
2022/04/04 05:43:41;;;;;;;;;;;;;;;;;;5038805;28;19933;-54
2022/04/04 05:46:06;;;;;;;;;;;;;;;;;;5023532;28;20372;-52
2022/04/04 05:48:32;;;;;;;;;;;;;;;;;;5031933;28;20012;-54
2022/04/04 05:50:57;;;;;;;;;;;;;;;;;;5027269;28;19917;-53
2022/04/04 05:53:22;;;;;;;;;;;;;;;;;;5027888;28;19936;-53
2022/04/04 05:55:47;;;;;;;;;;;;;;;;;;5030592;28;20376;-53
2022/04/04 05:58:13;;;;;;;;;;;;;;;;;;5032446;28;19927;-53
2022/04/04 06:00:38;;;;;;;;;;;;;;;;;;5030974;28;20011;-53
2022/04/04 06:03:03;;;;;;;;;;;;;;;;;;5016959;28;19928;-52
2022/04/04 06:05:29;;;;;;;;;;;;;;;;;;5031571;28;20368;-54
2022/04/04 06:07:54;;;;;;;;;;;;;;;;;;5017310;28;19913;-52
2022/04/04 06:10:19;;;;;;;;;;;;;;;;;;5018529;28;19925;-53
2022/04/04 06:12:45;;;;;;;;;;;;;;;;;;5008336;28;19921;-53
2022/04/04 06:15:10;;;;;;;;;;;;;;;;;;4974252;28;19954;-53
2022/04/04 06:17:36;;;;;;;;;;;;;;;;;;4901744;28;19924;-53
2022/04/04 06:20:01;;;;;;;;;;;;;;;;;;4921320;28;20895;-53
2022/04/04 06:22:26;;;;;;;;;;;;;;;;;;4882432;28;19925;-53
2022/04/04 06:24:51;;;;;;;;;;;;;;;;;;4856723;28;19920;-52
2022/04/04 06:27:16;;;;;;;;;;;;;;;;;;4859308;28;21454;-52
2022/04/04 06:29:41;;;;;;;;;;;;;;;;;;4903525;28;21886;-53
2022/04/04 06:32:06;;;;;;;;;;;;;;;;;;4950741;28;19960;-51
2022/04/04 06:34:32;;;;;;;;;;;;;;;;;;4978160;28;19932;-52
2022/04/04 06:36:57;;;;;;;;;;;;;;;;;;4987410;28;20375;-53
2022/04/04 06:39:22;;;;;;;;;;;;;;;;;;4974733;28;20512;-52
2022/04/04 06:41:47;;;;;;;;;;;;;;;;;;4971096;28;19944;-52
2022/04/04 06:44:12;;;;;;;;;;;;;;;;;;4973956;28;20595;-52
2022/04/04 06:46:37;;;;;;;;;;;;;;;;;;4961135;28;22447;-52
2022/04/04 06:49:03;;;;;;;;;;;;;;;;;;4952017;28;19928;-52
2022/04/04 06:51:28;;;;;;;;;;;;;;;;;;4936962;28;20070;-52
2022/04/04 06:53:53;;;;;;;;;;;;;;;;;;4937873;28;19957;-54
2022/04/04 06:56:18;;;;;;;;;;;;;;;;;;4927027;28;22189;-53
2022/04/04 06:58:43;;;;;;;;;;;;;;;;;;4918749;28;19929;-52
2022/04/04 07:01:08;;;;;;;;;;;;;;;;;;4891855;28;19921;-53
2022/04/04 07:03:33;;;;;;;;;;;;;;;;;;4876207;28;22797;-53
2022/04/04 07:05:59;;;;;;;;;;;;;;;;;;4820402;28;19979;-53
2022/04/04 07:08:24;;;;;;;;;;;;;;;;;;4802199;28;19928;-53
2022/04/04 07:10:49;;;;;;;;;;;;;;;;;;4776329;28;20075;-54
2022/04/04 07:13:15;;;;;;;;;;;;;;;;;;4753378;28;19960;-53
2022/04/04 07:15:41;;;;;;;;;;;;;;;;;;4746207;28;19920;-53
2022/04/04 07:18:06;;;;;;;;;;;;;;;;;;4762976;28;19995;-52
2022/04/04 07:20:32;;;;;;;;;;;;;;;;;;4786166;28;19925;-55
2022/04/04 07:22:57;;;;;;;;;;;;;;;;;;4781258;28;19925;-52
2022/04/04 07:25:22;;;;;;;;;;;;;;;;;;4754224;28;21365;-51
2022/04/04 07:27:49;;;;;;;;;;;;;;;;;;4770098;28;20051;-53
2022/04/04 07:30:16;;;;;;;;;;;;;;;;;;4794077;28;19932;-53
2022/04/04 07:32:41;;;;;;;;;;;;;;;;;;4827588;28;20558;-53
2022/04/04 07:35:09;;;;;;;;;;;;;;;;;;4840258;28;19921;-53
2022/04/04 07:37:34;;;;;;;;;;;;;;;;;;4848375;28;24215;-52
2022/04/04 07:40:00;;;;;;;;;;;;;;;;;;4839847;28;20133;-52
2022/04/04 07:42:25;;;;;;;;;;;;;;;;;;4862028;28;19954;-54
2022/04/04 07:44:50;;;;;;;;;;;;;;;;;;4826492;28;19921;-55
2022/04/04 07:47:15;;;;;;;;;;;;;;;;;;4835050;28;21294;-54
2022/04/04 07:49:40;;;;;;;;;;;;;;;;;;4815754;28;25804;-53
2022/04/04 07:52:05;;;;;;;;;;;;;;;;;;4809862;28;19928;-53
2022/04/04 07:54:30;;;;;;;;;;;;;;;;;;4809555;28;19921;-52
2022/04/04 07:56:56;;;;;;;;;;;;;;;;;;4802119;28;20070;-53
2022/04/04 07:59:21;;;;;;;;;;;;;;;;;;4840445;22;19933;-52
2022/04/04 08:01:46;;;;;;;;;;;;;;;;;;4820057;28;22794;-53
2022/04/04 08:04:12;;;;;;;;;;;;;;;;;;4848237;28;19978;-54
2022/04/04 08:06:37;;;;;;;;;;;;;;;;;;4829737;28;19924;-53
2022/04/04 08:09:02;;;;;;;;;;;;;;;;;;4815423;28;21364;-54
2022/04/04 08:11:27;;;;;;;;;;;;;;;;;;4805557;28;19931;-54
2022/04/04 08:13:52;;;;;;;;;;;;;;;;;;4755811;28;23211;-57
2022/04/04 08:16:18;;;;;;;;;;;;;;;;;;4768448;28;22657;-54
2022/04/04 08:18:43;;;;;;;;;;;;;;;;;;4784297;28;22558;-55
2022/04/04 08:21:08;;;;;;;;;;;;;;;;;;4771399;28;19932;-53
2022/04/04 08:23:33;;;;;;;;;;;;;;;;;;4739248;28;20362;-56
2022/04/04 08:25:58;;;;;;;;;;;;;;;;;;4741339;28;19961;-54
2022/04/04 08:28:23;;;;;;;;;;;;;;;;;;4744114;28;20515;-53
2022/04/04 08:30:50;;;;;;;;;;;;;;;;;;4768327;28;20002;-53
2022/04/04 08:33:15;;;;;;;;;;;;;;;;;;4805671;28;19927;-53
2022/04/04 08:35:40;;;;;;;;;;;;;;;;;;4839848;28;19921;-54
2022/04/04 08:38:05;;;;;;;;;;;;;;;;;;4847349;28;19935;-54
2022/04/04 08:40:30;;;;;;;;;;;;;;;;;;4841274;28;21717;-53
2022/04/04 08:42:55;;;;;;;;;;;;;;;;;;4863433;28;19987;-54
2022/04/04 08:45:21;;;;;;;;;;;;;;;;;;4828562;28;19921;-55
2022/04/04 08:47:46;;;;;;;;;;;;;;;;;;4830833;28;21568;-53
2022/04/04 08:50:11;;;;;;;;;;;;;;;;;;4870291;28;20259;-54
2022/04/04 08:52:36;;;;;;;;;;;;;;;;;;4858850;28;20391;-53
2022/04/04 08:55:01;;;;;;;;;;;;;;;;;;4868364;28;21806;-54
2022/04/04 08:57:27;;;;;;;;;;;;;;;;;;4858183;28;22425;-54
2022/04/04 08:59:52;;;;;;;;;;;;;;;;;;4859316;28;19929;-56
2022/04/04 09:02:17;;;;;;;;;;;;;;;;;;4873918;28;19976;-54
2022/04/04 09:04:42;;;;;;;;;;;;;;;;;;4871875;28;20028;-56
2022/04/04 09:07:07;;;;;;;;;;;;;;;;;;4875097;28;20019;-54
2022/04/04 09:09:32;;;;;;;;;;;;;;;;;;4879123;28;19921;-53
2022/04/04 09:11:58;;;;;;;;;;;;;;;;;;4889179;28;19928;-53
2022/04/04 09:14:24;;;;;;;;;;;;;;;;;;4864309;28;20070;-53
2022/04/04 09:16:49;;;;;;;;;;;;;;;;;;4848860;28;20461;-53
2022/04/04 09:19:14;;;;;;;;;;;;;;;;;;4851313;28;20047;-54
2022/04/04 09:21:39;;;;;;;;;;;;;;;;;;4771697;28;19921;-53
2022/04/04 09:24:07;;;;;;;;;;;;;;;;;;4736812;28;22105;-54
2022/04/04 09:26:32;;;;;;;;;;;;;;;;;;4744397;28;27716;-54
2022/04/04 09:28:57;;;;;;;;;;;;;;;;;;4761669;28;19928;-54
2022/04/04 09:31:23;;;;;;;;;;;;;;;;;;4783266;28;19924;-53
2022/04/04 09:33:49;;;;;;;;;;;;;;;;;;4822984;28;19958;-54
2022/04/04 09:36:14;;;;;;;;;;;;;;;;;;4851394;28;19921;-54
2022/04/04 09:38:39;;;;;;;;;;;;;;;;;;4866720;28;20006;-54
2022/04/04 09:41:04;;;;;;;;;;;;;;;;;;4872115;28;19920;-57
2022/04/04 09:43:29;;;;;;;;;;;;;;;;;;4897917;28;19928;-54
2022/04/04 09:45:54;;;;;;;;;;;;;;;;;;4894728;28;19927;-54
2022/04/04 09:48:19;;;;;;;;;;;;;;;;;;4871244;28;19928;-56
2022/04/04 09:50:48;;;;;;;;;;;;;;;;;;4887068;28;19944;-57
2022/04/04 09:53:13;;;;;;;;;;;;;;;;;;4888972;28;19920;-57
2022/04/04 09:55:39;;;;;;;;;;;;;;;;;;4900756;28;19987;-54
2022/04/04 09:58:05;;;;;;;;;;;;;;;;;;4889163;28;19925;-56
2022/04/04 10:00:30;;;;;;;;;;;;;;;;;;4870957;28;19983;-56
2022/04/04 10:02:56;;;;;;;;;;;;;;;;;;4868163;28;20035;-54
2022/04/04 10:05:21;;;;;;;;;;;;;;;;;;4843963;28;19921;-54
2022/04/04 10:07:46;;;;;;;;;;;;;;;;;;4837153;28;19921;-55
2022/04/04 10:10:11;;;;;;;;;;;;;;;;;;4858129;28;19940;-55
2022/04/04 10:12:36;;;;;;;;;;;;;;;;;;4858664;28;19921;-51
2022/04/04 10:15:03;;;;;;;;;;;;;;;;;;4852981;28;19928;-55
2022/04/04 10:17:28;;;;;;;;;;;;;;;;;;4876823;28;19987;-54
2022/04/04 10:19:53;;;;;;;;;;;;;;;;;;4914196;28;23546;-56
2022/04/04 10:22:18;;;;;;;;;;;;;;;;;;4912929;28;19921;-54
2022/04/04 10:24:43;;;;;;;;;;;;;;;;;;4934749;28;19936;-53
2022/04/04 10:27:12;;;;;;;;;;;;;;;;;;4952422;28;20636;-53
2022/04/04 10:29:37;;;;;;;;;;;;;;;;;;4950179;28;19921;-55
2022/04/04 10:32:03;;;;;;;;;;;;;;;;;;4940897;28;19920;-52
2022/04/04 10:34:28;;;;;;;;;;;;;;;;;;4931264;28;20133;-52
2022/04/04 10:36:53;;;;;;;;;;;;;;;;;;4927450;28;22270;-53
2022/04/04 10:39:19;;;;;;;;;;;;;;;;;;4931246;28;21271;-53
2022/04/04 10:41:44;;;;;;;;;;;;;;;;;;4951941;28;19978;-53
2022/04/04 10:44:09;;;;;;;;;;;;;;;;;;4962838;28;19921;-53
2022/04/04 10:46:34;;;;;;;;;;;;;;;;;;4961411;28;19920;-51
2022/04/04 10:48:59;;;;;;;;;;;;;;;;;;4971113;28;19921;-53
2022/04/04 10:51:24;;;;;;;;;;;;;;;;;;4962043;28;20400;-53
2022/04/04 10:53:49;;;;;;;;;;;;;;;;;;4932918;28;20044;-53
2022/04/04 10:56:14;;;;;;;;;;;;;;;;;;4958734;28;19921;-53
2022/04/04 10:58:40;;;;;;;;;;;;;;;;;;4917450;28;19929;-53
2022/04/04 11:01:14;;;;;;;;;;;;;;;;;;4919162;28;20553;-51
2022/04/04 11:03:39;;;;;;;;;;;;;;;;;;4897421;28;20003;-52
2022/04/04 11:08:48;;;;;;;;;;;;;;;;;;4904117;28;19928;-51
2022/04/04 11:11:34;;;;;;;;;;;;;;;;;;4911543;28;19954;-51
2022/04/04 11:13:59;;;;;;;;;;;;;;;;;;4931728;28;20018;-54
2022/04/04 11:16:44;;;;;;;;;;;;;;;;;;4956322;28;21757;-55
2022/04/04 11:19:12;;;;;;;;;;;;;;;;;;4962697;28;20647;-52
2022/04/04 11:21:37;;;;;;;;;;;;;;;;;;4942983;28;20035;-53
2022/04/04 11:24:02;;;;;;;;;;;;;;;;;;4914733;28;19920;-52
2022/04/04 11:26:27;;;;;;;;;;;;;;;;;;4944838;28;20611;-53
2022/04/04 11:28:55;;;;;;;;;;;;;;;;;;4931824;28;19963;-54
2022/04/04 11:31:20;;;;;;;;;;;;;;;;;;4908322;28;19935;-52
2022/04/04 11:33:47;;;;;;;;;;;;;;;;;;4921438;28;19989;-52
2022/04/04 11:36:12;;;;;;;;;;;;;;;;;;4939824;28;19921;-53
2022/04/04 11:38:38;;;;;;;;;;;;;;;;;;4967104;28;19928;-53
2022/04/04 11:41:04;;;;;;;;;;;;;;;;;;4947231;28;21642;-53
2022/04/04 11:43:29;;;;;;;;;;;;;;;;;;4967281;28;20474;-54
2022/04/04 11:45:55;;;;;;;;;;;;;;;;;;4993524;28;19925;-52
2022/04/04 11:48:24;;;;;;;;;;;;;;;;;;4978416;28;21532;-54
2022/04/04 11:50:51;;;;;;;;;;;;;;;;;;4980495;28;20290;-53
2022/04/04 11:53:17;;;;;;;;;;;;;;;;;;4973150;28;20002;-54
2022/04/04 11:55:42;;;;;;;;;;;;;;;;;;4979501;28;20002;-54
2022/04/04 11:58:12;;;;;;;;;;;;;;;;;;4970845;28;19983;-53
2022/04/04 12:00:37;;;;;;;;;;;;;;;;;;4973574;28;19963;-61
2022/04/04 12:03:03;;;;;;;;;;;;;;;;;;4980392;28;20555;-52
2022/04/04 12:05:29;;;;;;;;;;;;;;;;;;4979827;28;19927;-52
2022/04/04 12:07:55;;;;;;;;;;;;;;;;;;4996949;28;19924;-53
2022/04/04 12:10:20;;;;;;;;;;;;;;;;;;4998985;28;19924;-54
2022/04/04 12:12:45;;;;;;;;;;;;;;;;;;4992530;28;19921;-53
2022/04/04 12:15:10;;;;;;;;;;;;;;;;;;4982159;28;19931;-52
2022/04/04 12:17:35;;;;;;;;;;;;;;;;;;4992826;28;19921;-54
2022/04/04 12:20:01;;;;;;;;;;;;;;;;;;4993841;28;19921;-52
2022/04/04 12:25:09;;;;;;;;;;;;;;;;;;4917750;28;20826;-53
2022/04/04 12:27:35;;;;;;;;;;;;;;;;;;4949133;28;20525;-52
2022/04/04 12:30:00;;;;;;;;;;;;;;;;;;4952363;28;19921;-52
2022/04/04 12:32:25;;;;;;;;;;;;;;;;;;4971587;28;19921;-54
2022/04/04 12:34:50;;;;;;;;;;;;;;;;;;4998870;28;21351;-53
2022/04/04 12:37:15;;;;;;;;;;;;;;;;;;5001811;28;20011;-52
2022/04/04 12:39:40;;;;;;;;;;;;;;;;;;4984171;28;19923;-55
2022/04/04 12:42:06;;;;;;;;;;;;;;;;;;5008801;28;20357;-55
2022/04/04 12:44:31;;;;;;;;;;;;;;;;;;5013840;28;20776;-53
2022/04/04 12:46:56;;;;;;;;;;;;;;;;;;5009444;28;20067;-53
2022/04/04 12:49:21;;;;;;;;;;;;;;;;;;5003946;28;20674;-55
2022/04/04 12:51:46;;;;;;;;;;;;;;;;;;5008563;28;20008;-53
2022/04/04 12:54:11;;;;;;;;;;;;;;;;;;5006424;28;19928;-53
2022/04/04 12:56:36;;;;;;;;;;;;;;;;;;4994013;28;20012;-53
2022/04/04 12:59:04;;;;;;;;;;;;;;;;;;5006426;28;20721;-54
2022/04/04 13:01:29;;;;;;;;;;;;;;;;;;5006563;28;19953;-55
2022/04/04 13:03:55;;;;;;;;;;;;;;;;;;5010108;28;20035;-54
2022/04/04 13:06:20;;;;;;;;;;;;;;;;;;4995965;28;20039;-54
2022/04/04 13:08:45;;;;;;;;;;;;;;;;;;5003310;28;20455;-53
2022/04/04 13:11:11;;;;;;;;;;;;;;;;;;4997248;28;19946;-54
2022/04/04 13:13:36;;;;;;;;;;;;;;;;;;4989840;28;20298;-53
2022/04/04 13:16:01;;;;;;;;;;;;;;;;;;4997255;28;20292;-54
2022/04/04 13:18:26;;;;;;;;;;;;;;;;;;5019529;28;19969;-54
2022/04/04 13:20:51;;;;;;;;;;;;;;;;;;5049784;28;19927;-53
2022/04/04 13:23:16;;;;;;;;;;;;;;;;;;5055543;28;20062;-53
2022/04/04 13:25:41;;;;;;;;;;;;;;;;;;5056147;28;20448;-53
2022/04/04 13:28:09;;;;;;;;;;;;;;;;;;5052002;28;19927;-54
2022/04/04 13:30:34;;;;;;;;;;;;;;;;;;5058419;28;20055;-54
2022/04/04 13:32:59;;;;;;;;;;;;;;;;;;5057461;28;19920;-53
2022/04/04 13:35:26;;;;;;;;;;;;;;;;;;5062287;28;20220;-53
2022/04/04 13:37:52;;;;;;;;;;;;;;;;;;5062428;28;20008;-55
2022/04/04 13:40:17;;;;;;;;;;;;;;;;;;5068596;28;20086;-54
2022/04/04 13:42:42;;;;;;;;;;;;;;;;;;5064571;28;19920;-52
2022/04/04 13:45:08;;;;;;;;;;;;;;;;;;5065495;28;19916;-55
2022/04/04 13:47:33;;;;;;;;;;;;;;;;;;5059426;28;19916;-53
2022/04/04 13:49:58;;;;;;;;;;;;;;;;;;5059354;28;20367;-53
2022/04/04 13:52:23;;;;;;;;;;;;;;;;;;5064508;28;19953;-53
2022/04/04 13:54:48;;;;;;;;;;;;;;;;;;5046307;28;19972;-54
2022/04/04 13:57:13;;;;;;;;;;;;;;;;;;5067621;28;22640;-55
2022/04/04 13:59:38;;;;;;;;;;;;;;;;;;5054812;28;19959;-54
2022/04/04 14:02:04;;;;;;;;;;;;;;;;;;5071790;28;19927;-54
2022/04/04 14:04:29;;;;;;;;;;;;;;;;;;5071655;28;19920;-56
2022/04/04 14:06:54;;;;;;;;;;;;;;;;;;5069278;28;20007;-54
2022/04/04 14:09:19;;;;;;;;;;;;;;;;;;5069766;28;20492;-53
2022/04/04 14:11:44;;;;;;;;;;;;;;;;;;5078123;28;20363;-55
2022/04/04 14:14:09;;;;;;;;;;;;;;;;;;5065151;28;20002;-54
2022/04/04 14:16:35;;;;;;;;;;;;;;;;;;5058489;28;19919;-55
2022/04/04 14:19:00;;;;;;;;;;;;;;;;;;5076286;28;19982;-53
2022/04/04 14:21:26;;;;;;;;;;;;;;;;;;5073820;28;19924;-53
2022/04/04 14:23:51;;;;;;;;;;;;;;;;;;5070433;28;19920;-55
2022/04/04 14:26:16;;;;;;;;;;;;;;;;;;5068629;28;19919;-55
2022/04/04 14:28:42;;;;;;;;;;;;;;;;;;5071523;28;19921;-54
2022/04/04 14:31:07;;;;;;;;;;;;;;;;;;5070001;28;19961;-54
2022/04/04 14:33:32;;;;;;;;;;;;;;;;;;5080069;28;20240;-56
2022/04/04 14:35:57;;;;;;;;;;;;;;;;;;5077822;28;20616;-53
2022/04/04 14:38:22;;;;;;;;;;;;;;;;;;5084261;28;19935;-55
2022/04/04 14:40:48;;;;;;;;;;;;;;;;;;5081560;28;19920;-53
2022/04/04 14:43:13;;;;;;;;;;;;;;;;;;5077444;28;19951;-55
2022/04/04 14:45:38;;;;;;;;;;;;;;;;;;5073982;28;19966;-54
2022/04/04 14:48:06;;;;;;;;;;;;;;;;;;5070124;28;20015;-54
2022/04/04 14:50:31;;;;;;;;;;;;;;;;;;5084120;28;19931;-54
2022/04/04 14:52:56;;;;;;;;;;;;;;;;;;5078278;28;19920;-53
2022/04/04 14:55:21;;;;;;;;;;;;;;;;;;5079631;28;20255;-56
2022/04/04 14:57:46;;;;;;;;;;;;;;;;;;5086429;28;19927;-55
2022/04/04 15:00:15;;;;;;;;;;;;;;;;;;5086989;28;19982;-51
2022/04/04 15:02:40;;;;;;;;;;;;;;;;;;5078498;28;19920;-54
2022/04/04 15:05:05;;;;;;;;;;;;;;;;;;5090758;28;19958;-56
2022/04/04 15:07:30;;;;;;;;;;;;;;;;;;5085556;28;19924;-54
2022/04/04 15:09:55;;;;;;;;;;;;;;;;;;5085675;28;20015;-54
2022/04/04 15:12:21;;;;;;;;;;;;;;;;;;5086771;28;20327;-55
2022/04/04 15:14:47;;;;;;;;;;;;;;;;;;5082417;28;19927;-56
2022/04/04 15:17:12;;;;;;;;;;;;;;;;;;5090477;28;19912;-54
2022/04/04 15:19:37;;;;;;;;;;;;;;;;;;5090105;28;19912;-54
2022/04/04 15:22:03;;;;;;;;;;;;;;;;;;5090026;28;19934;-54
2022/04/04 15:24:28;;;;;;;;;;;;;;;;;;5094662;28;19919;-55
2022/04/04 15:26:53;;;;;;;;;;;;;;;;;;5092216;28;19916;-57
2022/04/04 15:29:18;;;;;;;;;;;;;;;;;;5097704;28;19919;-54
2022/04/04 15:31:43;;;;;;;;;;;;;;;;;;5094427;28;19912;-55
2022/04/04 15:34:09;;;;;;;;;;;;;;;;;;5088942;28;19919;-54
2022/04/04 15:36:34;;;;;;;;;;;;;;;;;;5094390;28;19965;-55
2022/04/04 15:38:59;;;;;;;;;;;;;;;;;;5083993;28;20415;-55
2022/04/04 15:41:27;;;;;;;;;;;;;;;;;;5084781;28;19983;-57
2022/04/04 15:43:54;;;;;;;;;;;;;;;;;;5090656;28;20338;-54
2022/04/04 15:46:20;;;;;;;;;;;;;;;;;;5090619;28;20011;-54
2022/04/04 15:48:45;;;;;;;;;;;;;;;;;;5091358;28;20378;-54
2022/04/04 15:51:11;;;;;;;;;;;;;;;;;;5093170;28;20275;-55
2022/04/04 15:53:37;;;;;;;;;;;;;;;;;;5093181;28;19936;-54
2022/04/04 15:56:02;;;;;;;;;;;;;;;;;;5098069;28;19947;-54
2022/04/04 15:58:28;;;;;;;;;;;;;;;;;;5087574;28;19928;-54
2022/04/04 16:00:53;;;;;;;;;;;;;;;;;;5081001;28;19921;-53
2022/04/04 16:03:18;;;;;;;;;;;;;;;;;;5088387;28;20273;-48
2022/04/04 16:05:43;;;;;;;;;;;;;;;;;;5088427;28;19918;-48
2022/04/04 16:08:08;;;;;;;;;;;;;;;;;;5081603;28;19951;-48
2022/04/04 16:10:33;;;;;;;;;;;;;;;;;;5088210;28;19916;-48
2022/04/04 16:12:59;;;;;;;;;;;;;;;;;;5097535;28;19908;-49
2022/04/04 16:15:24;;;;;;;;;;;;;;;;;;5095397;28;20389;-49
2022/04/04 16:17:49;;;;;;;;;;;;;;;;;;5097339;28;19916;-49
2022/04/04 16:20:14;;;;;;;;;;;;;;;;;;5096505;28;19912;-49
2022/04/04 16:22:40;;;;;;;;;;;;;;;;;;5095248;28;19919;-48
2022/04/04 16:25:05;;;;;;;;;;;;;;;;;;5094749;28;20309;-49
2022/04/04 16:27:31;;;;;;;;;;;;;;;;;;5091694;28;20287;-49
2022/04/04 16:29:57;;;;;;;;;;;;;;;;;;5096988;28;19908;-48
2022/04/04 16:32:22;;;;;;;;;;;;;;;;;;5097083;28;19916;-48
2022/04/04 16:34:48;;;;;;;;;;;;;;;;;;5097082;28;20291;-48
2022/04/04 16:37:13;;;;;;;;;;;;;;;;;;5097097;28;20416;-48
2022/04/04 16:39:38;;;;;;;;;;;;;;;;;;5097134;28;19908;-49
2022/04/04 16:42:03;;;;;;;;;;;;;;;;;;5096936;28;19908;-50
2022/04/04 16:44:29;;;;;;;;;;;;;;;;;;5097124;28;20010;-49